sensor_id;sensor_type;location;lat;lon;timestamp;pressure;altitude;pressure_sealevel;temperature;humidity
75513;BME280;64090;49.770;18.760;2023-11-22T00:02:16;97799.86;;;-0.19;100.00
75513;BME280;64090;49.770;18.760;2023-11-22T00:05:20;97802.34;;;-0.21;100.00
75513;BME280;64090;49.770;18.760;2023-11-22T00:08:24;97802.55;;;-0.22;100.00
75513;BME280;64090;49.770;18.760;2023-11-22T00:11:27;97807.23;;;-0.24;100.00
75513;BME280;64090;49.770;18.760;2023-11-22T00:14:30;97808.58;;;-0.23;100.00
75513;BME280;64090;49.770;18.760;2023-11-22T00:17:34;97815.70;;;-0.25;100.00
75513;BME280;64090;49.770;18.760;2023-11-22T00:20:37;97822.40;;;-0.28;100.00
75513;BME280;64090;49.770;18.760;2023-11-22T00:23:40;97823.88;;;-0.29;100.00
75513;BME280;64090;49.770;18.760;2023-11-22T00:26:43;97825.89;;;-0.30;100.00
75513;BME280;64090;49.770;18.760;2023-11-22T00:29:46;97828.98;;;-0.31;100.00
75513;BME280;64090;49.770;18.760;2023-11-22T00:32:50;97840.56;;;-0.32;100.00
75513;BME280;64090;49.770;18.760;2023-11-22T00:35:54;97842.64;;;-0.34;100.00
75513;BME280;64090;49.770;18.760;2023-11-22T00:38:59;97850.66;;;-0.36;100.00
75513;BME280;64090;49.770;18.760;2023-11-22T00:42:03;97847.38;;;-0.40;100.00
75513;BME280;64090;49.770;18.760;2023-11-22T00:45:06;97841.29;;;-0.42;100.00
75513;BME280;64090;49.770;18.760;2023-11-22T00:48:10;97836.58;;;-0.45;100.00
75513;BME280;64090;49.770;18.760;2023-11-22T00:51:13;97832.30;;;-0.46;100.00
75513;BME280;64090;49.770;18.760;2023-11-22T00:54:17;97834.65;;;-0.45;100.00
75513;BME280;64090;49.770;18.760;2023-11-22T00:57:21;97845.31;;;-0.45;100.00
75513;BME280;64090;49.770;18.760;2023-11-22T01:00:24;97846.86;;;-0.45;100.00
75513;BME280;64090;49.770;18.760;2023-11-22T01:03:27;97845.48;;;-0.45;100.00
75513;BME280;64090;49.770;18.760;2023-11-22T01:06:31;97845.35;;;-0.45;100.00
75513;BME280;64090;49.770;18.760;2023-11-22T01:09:34;97849.38;;;-0.46;100.00
75513;BME280;64090;49.770;18.760;2023-11-22T01:12:38;97853.54;;;-0.43;100.00
75513;BME280;64090;49.770;18.760;2023-11-22T01:15:41;97862.57;;;-0.45;100.00
75513;BME280;64090;49.770;18.760;2023-11-22T01:18:44;97863.02;;;-0.49;100.00
75513;BME280;64090;49.770;18.760;2023-11-22T01:21:49;97864.15;;;-0.51;100.00
75513;BME280;64090;49.770;18.760;2023-11-22T01:24:52;97861.55;;;-0.54;100.00
75513;BME280;64090;49.770;18.760;2023-11-22T01:27:55;97862.59;;;-0.53;100.00
75513;BME280;64090;49.770;18.760;2023-11-22T01:30:58;97863.11;;;-0.53;100.00
75513;BME280;64090;49.770;18.760;2023-11-22T01:34:02;97862.73;;;-0.53;100.00
75513;BME280;64090;49.770;18.760;2023-11-22T01:37:09;97867.64;;;-0.51;100.00
75513;BME280;64090;49.770;18.760;2023-11-22T01:40:13;97869.54;;;-0.52;100.00
75513;BME280;64090;49.770;18.760;2023-11-22T01:43:20;97876.02;;;-0.54;100.00
75513;BME280;64090;49.770;18.760;2023-11-22T01:46:32;97878.89;;;-0.53;100.00
75513;BME280;64090;49.770;18.760;2023-11-22T01:49:36;97881.56;;;-0.57;100.00
75513;BME280;64090;49.770;18.760;2023-11-22T01:52:39;97882.96;;;-0.60;100.00
75513;BME280;64090;49.770;18.760;2023-11-22T01:55:43;97880.34;;;-0.63;100.00
75513;BME280;64090;49.770;18.760;2023-11-22T01:58:47;97885.84;;;-0.65;100.00
75513;BME280;64090;49.770;18.760;2023-11-22T02:01:53;97889.78;;;-0.66;100.00
75513;BME280;64090;49.770;18.760;2023-11-22T02:04:56;97896.90;;;-0.66;100.00
75513;BME280;64090;49.770;18.760;2023-11-22T02:08:00;97898.36;;;-0.69;100.00
75513;BME280;64090;49.770;18.760;2023-11-22T02:11:03;97902.17;;;-0.71;100.00
75513;BME280;64090;49.770;18.760;2023-11-22T02:14:06;97899.25;;;-0.71;100.00
75513;BME280;64090;49.770;18.760;2023-11-22T02:17:10;97899.39;;;-0.73;100.00
75513;BME280;64090;49.770;18.760;2023-11-22T02:20:13;97900.44;;;-0.75;100.00
75513;BME280;64090;49.770;18.760;2023-11-22T02:23:16;97908.27;;;-0.75;100.00
75513;BME280;64090;49.770;18.760;2023-11-22T02:26:20;97914.30;;;-0.76;100.00
75513;BME280;64090;49.770;18.760;2023-11-22T02:29:23;97914.95;;;-0.76;100.00
75513;BME280;64090;49.770;18.760;2023-11-22T02:32:26;97916.42;;;-0.77;100.00
75513;BME280;64090;49.770;18.760;2023-11-22T02:35:31;97921.80;;;-0.78;100.00
75513;BME280;64090;49.770;18.760;2023-11-22T02:38:34;97923.23;;;-0.79;100.00
75513;BME280;64090;49.770;18.760;2023-11-22T02:41:37;97924.43;;;-0.79;100.00
75513;BME280;64090;49.770;18.760;2023-11-22T02:44:41;97922.75;;;-0.82;100.00
75513;BME280;64090;49.770;18.760;2023-11-22T02:47:45;97927.98;;;-0.82;100.00
75513;BME280;64090;49.770;18.760;2023-11-22T02:50:49;97927.45;;;-0.81;100.00
75513;BME280;64090;49.770;18.760;2023-11-22T02:53:53;97928.15;;;-0.83;100.00
75513;BME280;64090;49.770;18.760;2023-11-22T02:56:56;97934.48;;;-0.85;100.00
75513;BME280;64090;49.770;18.760;2023-11-22T02:59:59;97937.61;;;-0.87;100.00
75513;BME280;64090;49.770;18.760;2023-11-22T03:03:02;97943.60;;;-0.85;100.00
75513;BME280;64090;49.770;18.760;2023-11-22T03:06:07;97953.10;;;-0.87;100.00
75513;BME280;64090;49.770;18.760;2023-11-22T03:09:11;97956.69;;;-0.88;100.00
75513;BME280;64090;49.770;18.760;2023-11-22T03:12:15;97959.63;;;-0.92;100.00
75513;BME280;64090;49.770;18.760;2023-11-22T03:15:18;97966.24;;;-0.94;100.00
75513;BME280;64090;49.770;18.760;2023-11-22T03:18:21;97972.38;;;-0.95;100.00
75513;BME280;64090;49.770;18.760;2023-11-22T03:21:24;97979.35;;;-0.97;100.00
75513;BME280;64090;49.770;18.760;2023-11-22T03:24:30;97979.55;;;-0.98;100.00
75513;BME280;64090;49.770;18.760;2023-11-22T03:27:33;97985.31;;;-0.98;100.00
75513;BME280;64090;49.770;18.760;2023-11-22T03:30:36;97986.10;;;-0.99;100.00
75513;BME280;64090;49.770;18.760;2023-11-22T03:33:40;97988.89;;;-0.99;100.00
75513;BME280;64090;49.770;18.760;2023-11-22T03:36:43;97998.26;;;-0.98;100.00
75513;BME280;64090;49.770;18.760;2023-11-22T03:39:46;98009.27;;;-0.99;100.00
75513;BME280;64090;49.770;18.760;2023-11-22T03:42:51;98014.45;;;-0.99;100.00
75513;BME280;64090;49.770;18.760;2023-11-22T03:45:54;98016.61;;;-0.97;100.00
75513;BME280;64090;49.770;18.760;2023-11-22T03:48:57;98020.65;;;-0.96;100.00
75513;BME280;64090;49.770;18.760;2023-11-22T03:52:00;98028.37;;;-0.95;100.00
75513;BME280;64090;49.770;18.760;2023-11-22T03:55:04;98036.84;;;-0.98;100.00
75513;BME280;64090;49.770;18.760;2023-11-22T03:58:07;98042.90;;;-0.98;100.00
75513;BME280;64090;49.770;18.760;2023-11-22T04:01:10;98052.25;;;-1.00;100.00
75513;BME280;64090;49.770;18.760;2023-11-22T04:04:13;98053.41;;;-1.01;100.00
75513;BME280;64090;49.770;18.760;2023-11-22T04:07:16;98064.44;;;-1.04;100.00
75513;BME280;64090;49.770;18.760;2023-11-22T04:10:19;98067.61;;;-1.02;100.00
75513;BME280;64090;49.770;18.760;2023-11-22T04:13:24;98070.63;;;-1.03;100.00
75513;BME280;64090;49.770;18.760;2023-11-22T04:16:28;98072.19;;;-1.03;100.00
75513;BME280;64090;49.770;18.760;2023-11-22T04:19:31;98071.85;;;-1.03;100.00
75513;BME280;64090;49.770;18.760;2023-11-22T04:22:34;98083.77;;;-1.02;100.00
75513;BME280;64090;49.770;18.760;2023-11-22T04:25:37;98086.00;;;-1.00;100.00
75513;BME280;64090;49.770;18.760;2023-11-22T04:28:40;98094.65;;;-1.01;100.00
75513;BME280;64090;49.770;18.760;2023-11-22T04:31:43;98098.63;;;-1.03;100.00
75513;BME280;64090;49.770;18.760;2023-11-22T04:34:46;98102.98;;;-1.03;100.00
75513;BME280;64090;49.770;18.760;2023-11-22T04:37:49;98111.84;;;-1.05;100.00
75513;BME280;64090;49.770;18.760;2023-11-22T04:40:52;98118.48;;;-1.05;100.00
75513;BME280;64090;49.770;18.760;2023-11-22T04:43:55;98126.55;;;-1.06;100.00
75513;BME280;64090;49.770;18.760;2023-11-22T04:46:58;98129.36;;;-1.07;100.00
75513;BME280;64090;49.770;18.760;2023-11-22T04:50:04;98134.69;;;-1.04;100.00
75513;BME280;64090;49.770;18.760;2023-11-22T04:53:09;98137.50;;;-1.06;100.00
75513;BME280;64090;49.770;18.760;2023-11-22T04:56:12;98146.85;;;-1.10;100.00
75513;BME280;64090;49.770;18.760;2023-11-22T04:59:15;98147.65;;;-1.14;100.00
75513;BME280;64090;49.770;18.760;2023-11-22T05:02:18;98152.21;;;-1.19;100.00
75513;BME280;64090;49.770;18.760;2023-11-22T05:05:21;98154.80;;;-1.21;100.00
75513;BME280;64090;49.770;18.760;2023-11-22T05:08:25;98160.24;;;-1.21;100.00
75513;BME280;64090;49.770;18.760;2023-11-22T05:11:28;98166.20;;;-1.22;100.00
75513;BME280;64090;49.770;18.760;2023-11-22T05:14:31;98168.12;;;-1.24;100.00
75513;BME280;64090;49.770;18.760;2023-11-22T05:17:34;98171.73;;;-1.26;100.00
75513;BME280;64090;49.770;18.760;2023-11-22T05:20:48;98172.76;;;-1.25;100.00
75513;BME280;64090;49.770;18.760;2023-11-22T05:24:36;98173.34;;;-1.26;100.00
75513;BME280;64090;49.770;18.760;2023-11-22T05:28:01;98177.92;;;-1.27;100.00
75513;BME280;64090;49.770;18.760;2023-11-22T05:35:54;98180.02;;;-1.23;100.00
75513;BME280;64090;49.770;18.760;2023-11-22T06:28:36;98251.67;;;-1.35;100.00
75513;BME280;64090;49.770;18.760;2023-11-22T07:37:39;98331.52;;;-1.54;100.00
75513;BME280;64090;49.770;18.760;2023-11-22T08:43:15;98406.67;;;-1.75;100.00
75513;BME280;64090;49.770;18.760;2023-11-22T08:59:48;98416.61;;;-1.65;100.00
75513;BME280;64090;49.770;18.760;2023-11-22T09:02:54;98418.21;;;-1.61;100.00
75513;BME280;64090;49.770;18.760;2023-11-22T09:06:00;98419.20;;;-1.63;100.00
75513;BME280;64090;49.770;18.760;2023-11-22T09:09:03;98414.56;;;-1.63;100.00
75513;BME280;64090;49.770;18.760;2023-11-22T09:12:07;98421.10;;;-1.65;100.00
75513;BME280;64090;49.770;18.760;2023-11-22T09:15:15;98422.15;;;-1.67;100.00
75513;BME280;64090;49.770;18.760;2023-11-22T09:18:26;98426.09;;;-1.66;99.94
75513;BME280;64090;49.770;18.760;2023-11-22T09:21:29;98438.92;;;-1.64;99.97
75513;BME280;64090;49.770;18.760;2023-11-22T09:24:33;98442.45;;;-1.60;99.83
75513;BME280;64090;49.770;18.760;2023-11-22T09:27:36;98446.45;;;-1.65;99.67
75513;BME280;64090;49.770;18.760;2023-11-22T09:30:39;98444.30;;;-1.66;99.59
75513;BME280;64090;49.770;18.760;2023-11-22T09:33:45;98450.25;;;-1.64;99.69
75513;BME280;64090;49.770;18.760;2023-11-22T09:36:48;98451.30;;;-1.62;99.40
75513;BME280;64090;49.770;18.760;2023-11-22T09:39:51;98450.90;;;-1.66;99.56
75513;BME280;64090;49.770;18.760;2023-11-22T09:43:00;98450.75;;;-1.69;99.64
75513;BME280;64090;49.770;18.760;2023-11-22T09:46:05;98452.30;;;-1.66;99.75
75513;BME280;64090;49.770;18.760;2023-11-22T09:49:10;98447.81;;;-1.66;99.68
75513;BME280;64090;49.770;18.760;2023-11-22T09:52:18;98453.41;;;-1.67;99.76
75513;BME280;64090;49.770;18.760;2023-11-22T09:55:28;98459.81;;;-1.67;99.82
75513;BME280;64090;49.770;18.760;2023-11-22T09:58:33;98463.16;;;-1.67;99.76
75513;BME280;64090;49.770;18.760;2023-11-22T10:01:36;98466.10;;;-1.65;99.87
75513;BME280;64090;49.770;18.760;2023-11-22T10:04:40;98477.94;;;-1.60;99.46
75513;BME280;64090;49.770;18.760;2023-11-22T10:07:43;98491.44;;;-1.62;99.37
75513;BME280;64090;49.770;18.760;2023-11-22T10:10:50;98495.44;;;-1.64;99.17
75513;BME280;64090;49.770;18.760;2023-11-22T10:13:56;98496.80;;;-1.71;99.45
75513;BME280;64090;49.770;18.760;2023-11-22T10:17:00;98499.55;;;-1.70;99.48
75513;BME280;64090;49.770;18.760;2023-11-22T10:20:04;98500.02;;;-1.70;99.69
75513;BME280;64090;49.770;18.760;2023-11-22T10:23:10;98507.55;;;-1.69;99.64
75513;BME280;64090;49.770;18.760;2023-11-22T10:26:13;98500.89;;;-1.70;99.69
75513;BME280;64090;49.770;18.760;2023-11-22T10:29:18;98496.06;;;-1.73;99.88
75513;BME280;64090;49.770;18.760;2023-11-22T10:32:21;98499.14;;;-1.70;99.85
75513;BME280;64090;49.770;18.760;2023-11-22T10:35:25;98504.74;;;-1.68;99.70
75513;BME280;64090;49.770;18.760;2023-11-22T10:38:28;98498.24;;;-1.69;99.85
75513;BME280;64090;49.770;18.760;2023-11-22T10:41:32;98488.02;;;-1.70;99.87
75513;BME280;64090;49.770;18.760;2023-11-22T10:44:35;98494.23;;;-1.67;99.83
75513;BME280;64090;49.770;18.760;2023-11-22T10:47:42;98489.02;;;-1.67;99.83
75513;BME280;64090;49.770;18.760;2023-11-22T10:50:47;98483.38;;;-1.66;99.83
75513;BME280;64090;49.770;18.760;2023-11-22T10:53:51;98491.46;;;-1.62;99.61
75513;BME280;64090;49.770;18.760;2023-11-22T10:56:56;98492.00;;;-1.60;99.69
75513;BME280;64090;49.770;18.760;2023-11-22T11:00:03;98482.91;;;-1.59;99.47
75513;BME280;64090;49.770;18.760;2023-11-22T11:03:17;98479.13;;;-1.60;99.76
75513;BME280;64090;49.770;18.760;2023-11-22T11:06:25;98479.55;;;-1.56;99.70
75513;BME280;64090;49.770;18.760;2023-11-22T11:09:35;98472.86;;;-1.53;99.36
75513;BME280;64090;49.770;18.760;2023-11-22T11:12:39;98475.80;;;-1.47;99.51
75513;BME280;64090;49.770;18.760;2023-11-22T11:15:43;98474.17;;;-1.44;99.37
75513;BME280;64090;49.770;18.760;2023-11-22T11:18:46;98477.83;;;-1.44;99.39
75513;BME280;64090;49.770;18.760;2023-11-22T11:21:50;98484.85;;;-1.43;99.39
75513;BME280;64090;49.770;18.760;2023-11-22T11:25:00;98491.41;;;-1.45;99.29
75513;BME280;64090;49.770;18.760;2023-11-22T11:28:10;98493.97;;;-1.46;99.38
75513;BME280;64090;49.770;18.760;2023-11-22T11:31:15;98495.48;;;-1.46;99.08
75513;BME280;64090;49.770;18.760;2023-11-22T11:34:18;98494.20;;;-1.47;99.18
75513;BME280;64090;49.770;18.760;2023-11-22T11:37:22;98497.41;;;-1.48;98.97
75513;BME280;64090;49.770;18.760;2023-11-22T11:40:26;98511.62;;;-1.48;99.16
75513;BME280;64090;49.770;18.760;2023-11-22T11:43:45;98521.35;;;-1.48;99.09
75513;BME280;64090;49.770;18.760;2023-11-22T11:46:51;98521.95;;;-1.46;98.79
75513;BME280;64090;49.770;18.760;2023-11-22T11:49:55;98528.39;;;-1.47;98.73
75513;BME280;64090;49.770;18.760;2023-11-22T11:52:58;98540.06;;;-1.47;98.45
75513;BME280;64090;49.770;18.760;2023-11-22T11:56:02;98541.98;;;-1.45;98.21
75513;BME280;64090;49.770;18.760;2023-11-22T11:59:05;98544.03;;;-1.46;98.25
75513;BME280;64090;49.770;18.760;2023-11-22T12:02:09;98541.02;;;-1.48;98.10
75513;BME280;64090;49.770;18.760;2023-11-22T12:05:12;98536.64;;;-1.48;98.06
75513;BME280;64090;49.770;18.760;2023-11-22T12:08:16;98539.52;;;-1.47;97.88
75513;BME280;64090;49.770;18.760;2023-11-22T12:11:19;98539.85;;;-1.46;97.89
75513;BME280;64090;49.770;18.760;2023-11-22T12:14:23;98542.10;;;-1.48;97.53
75513;BME280;64090;49.770;18.760;2023-11-22T12:17:26;98546.96;;;-1.51;97.69
75513;BME280;64090;49.770;18.760;2023-11-22T12:20:32;98546.50;;;-1.55;97.33
75513;BME280;64090;49.770;18.760;2023-11-22T12:23:35;98544.91;;;-1.56;97.39
75513;BME280;64090;49.770;18.760;2023-11-22T12:26:39;98545.65;;;-1.57;97.26
75513;BME280;64090;49.770;18.760;2023-11-22T12:29:46;98541.94;;;-1.58;97.48
75513;BME280;64090;49.770;18.760;2023-11-22T12:32:49;98544.03;;;-1.56;97.39
75513;BME280;64090;49.770;18.760;2023-11-22T12:35:52;98544.29;;;-1.57;97.28
75513;BME280;64090;49.770;18.760;2023-11-22T12:38:56;98531.06;;;-1.57;97.09
75513;BME280;64090;49.770;18.760;2023-11-22T12:42:03;98542.56;;;-1.55;97.02
75513;BME280;64090;49.770;18.760;2023-11-22T12:45:20;98549.81;;;-1.57;96.94
75513;BME280;64090;49.770;18.760;2023-11-22T12:48:25;98555.34;;;-1.56;96.56
75513;BME280;64090;49.770;18.760;2023-11-22T12:51:28;98550.83;;;-1.59;96.38
75513;BME280;64090;49.770;18.760;2023-11-22T12:54:32;98552.17;;;-1.58;96.60
75513;BME280;64090;49.770;18.760;2023-11-22T12:57:35;98558.64;;;-1.57;96.55
75513;BME280;64090;49.770;18.760;2023-11-22T13:00:39;98565.41;;;-1.54;96.56
75513;BME280;64090;49.770;18.760;2023-11-22T13:03:42;98564.91;;;-1.54;96.46
75513;BME280;64090;49.770;18.760;2023-11-22T13:06:45;98569.63;;;-1.52;96.56
75513;BME280;64090;49.770;18.760;2023-11-22T13:09:48;98568.66;;;-1.51;96.50
75513;BME280;64090;49.770;18.760;2023-11-22T13:12:53;98559.20;;;-1.49;96.68
75513;BME280;64090;49.770;18.760;2023-11-22T13:15:56;98555.46;;;-1.51;96.55
75513;BME280;64090;49.770;18.760;2023-11-22T13:19:00;98562.04;;;-1.48;96.47
75513;BME280;64090;49.770;18.760;2023-11-22T13:22:03;98559.83;;;-1.51;96.16
75513;BME280;64090;49.770;18.760;2023-11-22T13:25:08;98561.19;;;-1.53;96.50
75513;BME280;64090;49.770;18.760;2023-11-22T13:28:16;98553.18;;;-1.56;96.38
75513;BME280;64090;49.770;18.760;2023-11-22T13:31:20;98550.95;;;-1.56;96.37
75513;BME280;64090;49.770;18.760;2023-11-22T13:34:24;98558.29;;;-1.54;96.16
75513;BME280;64090;49.770;18.760;2023-11-22T13:37:27;98569.21;;;-1.54;96.08
75513;BME280;64090;49.770;18.760;2023-11-22T13:40:30;98576.65;;;-1.53;96.01
75513;BME280;64090;49.770;18.760;2023-11-22T13:43:33;98572.26;;;-1.60;96.08
75513;BME280;64090;49.770;18.760;2023-11-22T13:46:36;98569.99;;;-1.62;96.20
75513;BME280;64090;49.770;18.760;2023-11-22T13:49:39;98571.31;;;-1.63;96.18
75513;BME280;64090;49.770;18.760;2023-11-22T13:52:43;98582.56;;;-1.65;96.22
75513;BME280;64090;49.770;18.760;2023-11-22T13:55:46;98586.10;;;-1.66;96.15
75513;BME280;64090;49.770;18.760;2023-11-22T13:58:49;98592.75;;;-1.67;96.34
75513;BME280;64090;49.770;18.760;2023-11-22T14:01:52;98594.26;;;-1.69;96.37
75513;BME280;64090;49.770;18.760;2023-11-22T14:04:55;98599.33;;;-1.69;96.48
75513;BME280;64090;49.770;18.760;2023-11-22T14:07:58;98599.52;;;-1.69;96.26
75513;BME280;64090;49.770;18.760;2023-11-22T14:11:01;98598.23;;;-1.68;96.22
75513;BME280;64090;49.770;18.760;2023-11-22T14:14:04;98594.63;;;-1.71;96.45
75513;BME280;64090;49.770;18.760;2023-11-22T14:17:08;98589.29;;;-1.75;96.69
75513;BME280;64090;49.770;18.760;2023-11-22T14:20:11;98594.77;;;-1.76;96.42
75513;BME280;64090;49.770;18.760;2023-11-22T14:23:18;98604.04;;;-1.75;96.38
75513;BME280;64090;49.770;18.760;2023-11-22T14:26:21;98619.50;;;-1.77;96.23
75513;BME280;64090;49.770;18.760;2023-11-22T14:29:26;98638.38;;;-1.76;96.05
75513;BME280;64090;49.770;18.760;2023-11-22T14:32:29;98642.42;;;-1.79;96.31
75513;BME280;64090;49.770;18.760;2023-11-22T14:35:33;98635.81;;;-1.79;96.31
75513;BME280;64090;49.770;18.760;2023-11-22T14:38:41;98637.48;;;-1.81;96.17
75513;BME280;64090;49.770;18.760;2023-11-22T14:41:44;98651.95;;;-1.79;94.95
75513;BME280;64090;49.770;18.760;2023-11-22T14:44:48;98652.39;;;-1.83;93.65
75513;BME280;64090;49.770;18.760;2023-11-22T14:47:51;98652.19;;;-1.90;94.06
75513;BME280;64090;49.770;18.760;2023-11-22T14:50:54;98646.75;;;-1.89;94.38
75513;BME280;64090;49.770;18.760;2023-11-22T14:53:57;98642.92;;;-1.92;94.58
75513;BME280;64090;49.770;18.760;2023-11-22T14:57:01;98642.49;;;-1.90;94.73
75513;BME280;64090;49.770;18.760;2023-11-22T15:00:05;98638.88;;;-1.91;94.99
75513;BME280;64090;49.770;18.760;2023-11-22T15:03:15;98629.12;;;-1.90;95.15
75513;BME280;64090;49.770;18.760;2023-11-22T15:06:18;98622.45;;;-1.90;95.22
75513;BME280;64090;49.770;18.760;2023-11-22T15:09:21;98625.30;;;-1.88;95.24
75513;BME280;64090;49.770;18.760;2023-11-22T15:12:24;98632.38;;;-1.87;95.38
75513;BME280;64090;49.770;18.760;2023-11-22T15:15:27;98635.19;;;-1.85;95.14
75513;BME280;64090;49.770;18.760;2023-11-22T15:18:30;98634.89;;;-1.88;95.29
75513;BME280;64090;49.770;18.760;2023-11-22T15:21:33;98638.20;;;-1.91;95.43
75513;BME280;64090;49.770;18.760;2023-11-22T15:24:37;98633.89;;;-1.92;95.63
75513;BME280;64090;49.770;18.760;2023-11-22T15:27:41;98624.69;;;-1.94;95.80
75513;BME280;64090;49.770;18.760;2023-11-22T15:30:43;98626.97;;;-1.95;95.66
75513;BME280;64090;49.770;18.760;2023-11-22T15:33:46;98628.60;;;-1.93;95.70
75513;BME280;64090;49.770;18.760;2023-11-22T15:36:49;98629.91;;;-1.92;95.83
75513;BME280;64090;49.770;18.760;2023-11-22T15:39:52;98632.45;;;-1.91;95.90
75513;BME280;64090;49.770;18.760;2023-11-22T15:42:55;98644.89;;;-1.90;95.96
75513;BME280;64090;49.770;18.760;2023-11-22T15:45:58;98652.64;;;-1.89;95.95
75513;BME280;64090;49.770;18.760;2023-11-22T15:49:01;98654.14;;;-1.88;95.94
75513;BME280;64090;49.770;18.760;2023-11-22T15:52:06;98657.70;;;-1.89;95.86
75513;BME280;64090;49.770;18.760;2023-11-22T15:55:09;98656.51;;;-1.92;95.95
75513;BME280;64090;49.770;18.760;2023-11-22T15:58:16;98651.97;;;-1.92;96.15
75513;BME280;64090;49.770;18.760;2023-11-22T16:01:40;98658.50;;;-1.91;95.92
75513;BME280;64090;49.770;18.760;2023-11-22T16:04:45;98655.84;;;-1.93;95.87
75513;BME280;64090;49.770;18.760;2023-11-22T16:07:49;98654.48;;;-1.96;95.87
75513;BME280;64090;49.770;18.760;2023-11-22T16:10:52;98653.59;;;-2.01;95.97
75513;BME280;64090;49.770;18.760;2023-11-22T16:13:56;98657.80;;;-2.01;95.97
75513;BME280;64090;49.770;18.760;2023-11-22T16:16:58;98651.46;;;-2.08;96.04
75513;BME280;64090;49.770;18.760;2023-11-22T16:20:03;98647.48;;;-2.11;96.27
75513;BME280;64090;49.770;18.760;2023-11-22T16:23:14;98648.73;;;-2.11;96.52
75513;BME280;64090;49.770;18.760;2023-11-22T16:26:18;98642.93;;;-2.10;96.39
75513;BME280;64090;49.770;18.760;2023-11-22T16:29:21;98629.91;;;-2.10;96.22
75513;BME280;64090;49.770;18.760;2023-11-22T16:32:25;98615.89;;;-2.10;96.14
75513;BME280;64090;49.770;18.760;2023-11-22T16:35:28;98607.67;;;-2.10;96.06
75513;BME280;64090;49.770;18.760;2023-11-22T16:38:32;98595.34;;;-2.12;95.71
75513;BME280;64090;49.770;18.760;2023-11-22T16:41:36;98595.82;;;-2.17;95.77
75513;BME280;64090;49.770;18.760;2023-11-22T16:44:39;98607.73;;;-2.15;95.90
75513;BME280;64090;49.770;18.760;2023-11-22T16:47:45;98615.00;;;-2.15;95.71
75513;BME280;64090;49.770;18.760;2023-11-22T16:50:52;98619.02;;;-2.18;96.00
75513;BME280;64090;49.770;18.760;2023-11-22T16:53:56;98615.09;;;-2.20;96.01
75513;BME280;64090;49.770;18.760;2023-11-22T16:57:00;98605.67;;;-2.19;96.19
75513;BME280;64090;49.770;18.760;2023-11-22T17:00:07;98609.95;;;-2.18;96.44
75513;BME280;64090;49.770;18.760;2023-11-22T17:03:20;98615.83;;;-2.17;96.21
75513;BME280;64090;49.770;18.760;2023-11-22T17:06:26;98621.71;;;-2.20;96.43
75513;BME280;64090;49.770;18.760;2023-11-22T17:09:29;98624.01;;;-2.20;96.56
75513;BME280;64090;49.770;18.760;2023-11-22T17:12:32;98636.38;;;-2.21;96.68
75513;BME280;64090;49.770;18.760;2023-11-22T17:15:35;98637.19;;;-2.23;96.74
75513;BME280;64090;49.770;18.760;2023-11-22T17:18:38;98651.77;;;-2.20;96.73
75513;BME280;64090;49.770;18.760;2023-11-22T17:21:42;98661.30;;;-2.17;96.67
75513;BME280;64090;49.770;18.760;2023-11-22T17:24:45;98669.55;;;-2.13;96.74
75513;BME280;64090;49.770;18.760;2023-11-22T17:27:48;98681.75;;;-2.11;96.51
75513;BME280;64090;49.770;18.760;2023-11-22T17:30:57;98689.70;;;-2.13;96.09
75513;BME280;64090;49.770;18.760;2023-11-22T17:34:00;98683.44;;;-2.19;96.21
75513;BME280;64090;49.770;18.760;2023-11-22T17:37:06;98696.23;;;-2.24;96.18
75513;BME280;64090;49.770;18.760;2023-11-22T17:40:39;98703.52;;;-2.26;96.46
75513;BME280;64090;49.770;18.760;2023-11-22T17:44:07;98703.82;;;-2.28;96.33
75513;BME280;64090;49.770;18.760;2023-11-22T17:47:29;98698.19;;;-2.29;96.43
75513;BME280;64090;49.770;18.760;2023-11-22T17:50:47;98685.14;;;-2.29;96.63
75513;BME280;64090;49.770;18.760;2023-11-22T17:53:50;98681.39;;;-2.29;96.61
75513;BME280;64090;49.770;18.760;2023-11-22T17:56:54;98670.30;;;-2.30;96.56
75513;BME280;64090;49.770;18.760;2023-11-22T18:00:02;98663.42;;;-2.29;96.43
75513;BME280;64090;49.770;18.760;2023-11-22T18:03:08;98657.13;;;-2.30;96.22
75513;BME280;64090;49.770;18.760;2023-11-22T18:06:13;98651.81;;;-2.31;96.59
75513;BME280;64090;49.770;18.760;2023-11-22T18:09:18;98659.12;;;-2.29;96.27
75513;BME280;64090;49.770;18.760;2023-11-22T18:12:26;98658.50;;;-2.30;95.88
75513;BME280;64090;49.770;18.760;2023-11-22T18:15:30;98662.06;;;-2.32;95.73
75513;BME280;64090;49.770;18.760;2023-11-22T18:18:36;98666.79;;;-2.35;95.92
75513;BME280;64090;49.770;18.760;2023-11-22T18:21:41;98665.83;;;-2.33;95.72
75513;BME280;64090;49.770;18.760;2023-11-22T18:24:47;98677.68;;;-2.34;95.90
75513;BME280;64090;49.770;18.760;2023-11-22T18:27:51;98681.39;;;-2.35;95.80
75513;BME280;64090;49.770;18.760;2023-11-22T18:30:56;98681.98;;;-2.36;95.88
75513;BME280;64090;49.770;18.760;2023-11-22T18:34:02;98686.36;;;-2.37;95.83
75513;BME280;64090;49.770;18.760;2023-11-22T18:37:10;98695.08;;;-2.37;95.88
75513;BME280;64090;49.770;18.760;2023-11-22T18:40:16;98708.30;;;-2.38;95.94
75513;BME280;64090;49.770;18.760;2023-11-22T18:43:22;98707.45;;;-2.35;96.25
75513;BME280;64090;49.770;18.760;2023-11-22T18:46:28;98710.95;;;-2.33;96.41
75513;BME280;64090;49.770;18.760;2023-11-22T18:49:37;98720.20;;;-2.36;96.62
75513;BME280;64090;49.770;18.760;2023-11-22T18:52:45;98716.83;;;-2.38;96.92
75513;BME280;64090;49.770;18.760;2023-11-22T18:55:52;98708.58;;;-2.34;96.57
75513;BME280;64090;49.770;18.760;2023-11-22T18:59:10;98692.88;;;-2.36;96.47
75513;BME280;64090;49.770;18.760;2023-11-22T19:02:15;98683.38;;;-2.36;96.28
75513;BME280;64090;49.770;18.760;2023-11-22T19:05:18;98675.23;;;-2.36;96.12
75513;BME280;64090;49.770;18.760;2023-11-22T19:08:21;98665.00;;;-2.36;96.33
75513;BME280;64090;49.770;18.760;2023-11-22T19:11:25;98656.50;;;-2.34;96.25
75513;BME280;64090;49.770;18.760;2023-11-22T19:14:28;98655.72;;;-2.30;96.18
75513;BME280;64090;49.770;18.760;2023-11-22T19:17:32;98658.41;;;-2.29;96.04